sensor_id;sensor_type;location;lat;lon;timestamp;temperature;humidity
43607;DHT22;29197;44.788;10.366;2023-06-24T00:00:11;27.90;99.90
43607;DHT22;29197;44.788;10.366;2023-06-24T00:03:00;27.80;99.90
43607;DHT22;29197;44.788;10.366;2023-06-24T00:05:50;27.90;99.90
43607;DHT22;29197;44.788;10.366;2023-06-24T00:08:39;27.70;99.90
43607;DHT22;29197;44.788;10.366;2023-06-24T00:11:28;27.70;99.90
43607;DHT22;29197;44.788;10.366;2023-06-24T00:14:18;27.60;99.90
43607;DHT22;29197;44.788;10.366;2023-06-24T00:17:08;27.60;99.90
43607;DHT22;29197;44.788;10.366;2023-06-24T00:19:58;27.60;99.90
43607;DHT22;29197;44.788;10.366;2023-06-24T00:22:46;27.60;99.90
43607;DHT22;29197;44.788;10.366;2023-06-24T00:25:36;27.50;99.90
43607;DHT22;29197;44.788;10.366;2023-06-24T00:28:24;27.50;99.90
43607;DHT22;29197;44.788;10.366;2023-06-24T00:31:14;27.50;99.90
43607;DHT22;29197;44.788;10.366;2023-06-24T00:34:03;27.50;99.90
43607;DHT22;29197;44.788;10.366;2023-06-24T00:36:51;27.50;99.90
43607;DHT22;29197;44.788;10.366;2023-06-24T00:39:40;27.50;99.90
43607;DHT22;29197;44.788;10.366;2023-06-24T00:42:29;27.50;99.90
43607;DHT22;29197;44.788;10.366;2023-06-24T00:45:17;27.50;99.90
43607;DHT22;29197;44.788;10.366;2023-06-24T00:48:07;27.50;99.90
43607;DHT22;29197;44.788;10.366;2023-06-24T00:50:56;27.50;99.90
43607;DHT22;29197;44.788;10.366;2023-06-24T00:53:45;27.50;99.90
43607;DHT22;29197;44.788;10.366;2023-06-24T00:56:36;27.40;99.90
43607;DHT22;29197;44.788;10.366;2023-06-24T00:59:27;27.40;99.90
43607;DHT22;29197;44.788;10.366;2023-06-24T01:02:19;27.40;99.90
43607;DHT22;29197;44.788;10.366;2023-06-24T01:05:10;27.40;99.90
43607;DHT22;29197;44.788;10.366;2023-06-24T01:08:00;27.50;99.90
43607;DHT22;29197;44.788;10.366;2023-06-24T01:10:49;27.40;99.90
43607;DHT22;29197;44.788;10.366;2023-06-24T01:13:38;27.40;99.90
43607;DHT22;29197;44.788;10.366;2023-06-24T01:16:33;27.40;99.90
43607;DHT22;29197;44.788;10.366;2023-06-24T01:19:38;27.40;99.90
43607;DHT22;29197;44.788;10.366;2023-06-24T01:22:59;27.40;99.90
43607;DHT22;29197;44.788;10.366;2023-06-24T01:37:44;26.50;99.90
43607;DHT22;29197;44.788;10.366;2023-06-24T01:40:38;26.40;99.90
43607;DHT22;29197;44.788;10.366;2023-06-24T01:43:28;26.40;99.90
43607;DHT22;29197;44.788;10.366;2023-06-24T02:00:29;25.60;99.90
43607;DHT22;29197;44.788;10.366;2023-06-24T02:03:19;25.30;99.90
43607;DHT22;29197;44.788;10.366;2023-06-24T04:16:05;25.30;99.90
43607;DHT22;29197;44.788;10.366;2023-06-24T04:18:54;25.20;99.90
43607;DHT22;29197;44.788;10.366;2023-06-24T04:33:00;24.70;99.90
43607;DHT22;29197;44.788;10.366;2023-06-24T04:35:48;24.30;99.90
43607;DHT22;29197;44.788;10.366;2023-06-24T04:38:39;24.20;99.90
43607;DHT22;29197;44.788;10.366;2023-06-24T04:41:28;24.20;99.90
43607;DHT22;29197;44.788;10.366;2023-06-24T04:44:17;24.30;99.90
43607;DHT22;29197;44.788;10.366;2023-06-24T04:49:56;23.80;99.90
43607;DHT22;29197;44.788;10.366;2023-06-24T05:09:39;24.90;99.90
43607;DHT22;29197;44.788;10.366;2023-06-24T05:15:18;25.00;99.90
43607;DHT22;29197;44.788;10.366;2023-06-24T05:18:06;25.30;99.90
43607;DHT22;29197;44.788;10.366;2023-06-24T05:20:55;25.30;99.90
43607;DHT22;29197;44.788;10.366;2023-06-24T05:23:43;25.20;99.90
43607;DHT22;29197;44.788;10.366;2023-06-24T05:26:32;25.10;99.90
43607;DHT22;29197;44.788;10.366;2023-06-24T05:29:22;25.10;99.90
43607;DHT22;29197;44.788;10.366;2023-06-24T05:32:10;25.30;99.90
43607;DHT22;29197;44.788;10.366;2023-06-24T05:34:59;25.30;99.90
43607;DHT22;29197;44.788;10.366;2023-06-24T05:37:48;25.10;99.90
43607;DHT22;29197;44.788;10.366;2023-06-24T05:40:36;25.20;99.90
43607;DHT22;29197;44.788;10.366;2023-06-24T05:43:25;25.20;99.90
43607;DHT22;29197;44.788;10.366;2023-06-24T05:46:15;25.20;99.90
43607;DHT22;29197;44.788;10.366;2023-06-24T05:49:04;25.20;99.90
43607;DHT22;29197;44.788;10.366;2023-06-24T05:51:53;25.40;99.90
43607;DHT22;29197;44.788;10.366;2023-06-24T05:54:41;25.80;99.90
43607;DHT22;29197;44.788;10.366;2023-06-24T05:57:30;25.40;99.90
43607;DHT22;29197;44.788;10.366;2023-06-24T06:00:19;25.30;99.90
43607;DHT22;29197;44.788;10.366;2023-06-24T06:03:09;25.20;99.90
43607;DHT22;29197;44.788;10.366;2023-06-24T06:05:58;25.20;99.90
43607;DHT22;29197;44.788;10.366;2023-06-24T06:17:14;25.80;99.90
43607;DHT22;29197;44.788;10.366;2023-06-24T06:20:05;26.10;99.90
43607;DHT22;29197;44.788;10.366;2023-06-24T07:56:01;29.60;99.90
43607;DHT22;29197;44.788;10.366;2023-06-24T07:58:50;29.60;99.90
43607;DHT22;29197;44.788;10.366;2023-06-24T08:01:40;29.60;99.90
43607;DHT22;29197;44.788;10.366;2023-06-24T08:04:28;29.50;99.90
43607;DHT22;29197;44.788;10.366;2023-06-24T08:07:17;29.60;99.90
43607;DHT22;29197;44.788;10.366;2023-06-24T08:10:07;29.60;99.90
43607;DHT22;29197;44.788;10.366;2023-06-24T08:12:56;29.70;99.90
43607;DHT22;29197;44.788;10.366;2023-06-24T08:15:44;29.70;99.90
43607;DHT22;29197;44.788;10.366;2023-06-24T08:18:34;29.70;99.90
43607;DHT22;29197;44.788;10.366;2023-06-24T08:21:23;29.70;99.90
43607;DHT22;29197;44.788;10.366;2023-06-24T08:24:11;29.70;99.90
43607;DHT22;29197;44.788;10.366;2023-06-24T08:27:00;29.60;99.90
43607;DHT22;29197;44.788;10.366;2023-06-24T08:29:48;29.60;99.90
43607;DHT22;29197;44.788;10.366;2023-06-24T08:32:37;29.70;99.90
43607;DHT22;29197;44.788;10.366;2023-06-24T08:35:27;29.80;99.90
43607;DHT22;29197;44.788;10.366;2023-06-24T08:38:15;29.70;99.90
43607;DHT22;29197;44.788;10.366;2023-06-24T08:41:04;29.60;99.90
43607;DHT22;29197;44.788;10.366;2023-06-24T08:43:53;29.60;99.90
43607;DHT22;29197;44.788;10.366;2023-06-24T08:46:42;29.60;99.90
43607;DHT22;29197;44.788;10.366;2023-06-24T08:49:31;29.60;99.90
43607;DHT22;29197;44.788;10.366;2023-06-24T08:52:21;29.60;99.90
43607;DHT22;29197;44.788;10.366;2023-06-24T08:55:15;29.50;99.90
43607;DHT22;29197;44.788;10.366;2023-06-24T08:58:05;29.60;99.90
43607;DHT22;29197;44.788;10.366;2023-06-24T11:11:50;31.90;95.50
43607;DHT22;29197;44.788;10.366;2023-06-24T11:14:39;32.00;95.80
43607;DHT22;29197;44.788;10.366;2023-06-24T11:17:28;32.00;96.50
43607;DHT22;29197;44.788;10.366;2023-06-24T11:20:17;32.10;96.70
43607;DHT22;29197;44.788;10.366;2023-06-24T11:23:09;32.10;96.80
43607;DHT22;29197;44.788;10.366;2023-06-24T11:26:03;32.20;96.80
43607;DHT22;29197;44.788;10.366;2023-06-24T11:28:51;31.60;96.40
43607;DHT22;29197;44.788;10.366;2023-06-24T11:31:40;32.30;96.00
43607;DHT22;29197;44.788;10.366;2023-06-24T11:34:28;32.40;95.70
43607;DHT22;29197;44.788;10.366;2023-06-24T11:37:18;32.60;94.30
43607;DHT22;29197;44.788;10.366;2023-06-24T11:40:08;32.60;95.60
43607;DHT22;29197;44.788;10.366;2023-06-24T11:43:00;32.60;96.30
43607;DHT22;29197;44.788;10.366;2023-06-24T11:48:39;32.90;99.90
43607;DHT22;29197;44.788;10.366;2023-06-24T11:51:28;33.10;96.10
43607;DHT22;29197;44.788;10.366;2023-06-24T11:54:20;33.20;95.70
43607;DHT22;29197;44.788;10.366;2023-06-24T11:57:09;33.20;95.40
43607;DHT22;29197;44.788;10.366;2023-06-24T12:00:12;33.30;94.90
43607;DHT22;29197;44.788;10.366;2023-06-24T12:03:04;33.40;94.40
43607;DHT22;29197;44.788;10.366;2023-06-24T12:05:57;33.50;94.50
43607;DHT22;29197;44.788;10.366;2023-06-24T12:08:46;33.50;94.90
43607;DHT22;29197;44.788;10.366;2023-06-24T12:14:27;33.60;99.90
43607;DHT22;29197;44.788;10.366;2023-06-24T12:17:17;33.70;99.20
43607;DHT22;29197;44.788;10.366;2023-06-24T12:20:07;33.80;97.90
43607;DHT22;29197;44.788;10.366;2023-06-24T12:22:56;33.60;98.10
43607;DHT22;29197;44.788;10.366;2023-06-24T12:25:45;33.40;96.90
43607;DHT22;29197;44.788;10.366;2023-06-24T12:28:33;33.50;97.40
43607;DHT22;29197;44.788;10.366;2023-06-24T12:31:22;33.60;97.70
43607;DHT22;29197;44.788;10.366;2023-06-24T12:37:01;33.80;95.30
43607;DHT22;29197;44.788;10.366;2023-06-24T12:39:50;33.70;96.10
43607;DHT22;29197;44.788;10.366;2023-06-24T12:45:28;34.20;99.90
43607;DHT22;29197;44.788;10.366;2023-06-24T12:53:56;34.60;99.90
43607;DHT22;29197;44.788;10.366;2023-06-24T12:56:45;34.70;99.90
43607;DHT22;29197;44.788;10.366;2023-06-24T12:59:33;34.60;99.90
43607;DHT22;29197;44.788;10.366;2023-06-24T13:02:22;34.50;99.90
43607;DHT22;29197;44.788;10.366;2023-06-24T13:05:11;34.60;99.90
43607;DHT22;29197;44.788;10.366;2023-06-24T13:08:01;34.40;99.90
43607;DHT22;29197;44.788;10.366;2023-06-24T13:10:50;34.50;99.90
43607;DHT22;29197;44.788;10.366;2023-06-24T13:16:27;34.80;99.90
43607;DHT22;29197;44.788;10.366;2023-06-24T13:19:15;34.90;99.90
43607;DHT22;29197;44.788;10.366;2023-06-24T13:22:04;34.90;99.90
43607;DHT22;29197;44.788;10.366;2023-06-24T13:24:54;34.80;99.90
43607;DHT22;29197;44.788;10.366;2023-06-24T13:27:44;34.80;99.90
43607;DHT22;29197;44.788;10.366;2023-06-24T13:30:32;34.90;99.90
43607;DHT22;29197;44.788;10.366;2023-06-24T13:33:22;34.90;99.90
43607;DHT22;29197;44.788;10.366;2023-06-24T13:36:28;34.90;99.90
43607;DHT22;29197;44.788;10.366;2023-06-24T13:39:17;34.80;99.90
43607;DHT22;29197;44.788;10.366;2023-06-24T13:42:07;34.70;99.90
43607;DHT22;29197;44.788;10.366;2023-06-24T13:44:56;34.50;99.90
43607;DHT22;29197;44.788;10.366;2023-06-24T13:47:44;34.10;98.00
43607;DHT22;29197;44.788;10.366;2023-06-24T13:50:33;34.10;98.50
43607;DHT22;29197;44.788;10.366;2023-06-24T13:53:22;34.30;98.40
43607;DHT22;29197;44.788;10.366;2023-06-24T13:56:11;34.40;98.00
43607;DHT22;29197;44.788;10.366;2023-06-24T13:59:01;34.50;98.50
43607;DHT22;29197;44.788;10.366;2023-06-24T14:01:49;34.60;98.70
43607;DHT22;29197;44.788;10.366;2023-06-24T14:04:41;34.80;99.10
43607;DHT22;29197;44.788;10.366;2023-06-24T14:07:29;34.90;98.10
43607;DHT22;29197;44.788;10.366;2023-06-24T14:10:18;35.20;99.90
43607;DHT22;29197;44.788;10.366;2023-06-24T14:13:07;35.00;99.90
43607;DHT22;29197;44.788;10.366;2023-06-24T14:15:58;34.50;99.90
43607;DHT22;29197;44.788;10.366;2023-06-24T14:18:47;34.60;99.90
43607;DHT22;29197;44.788;10.366;2023-06-24T14:21:35;34.50;99.90
43607;DHT22;29197;44.788;10.366;2023-06-24T14:24:24;34.60;99.90
43607;DHT22;29197;44.788;10.366;2023-06-24T14:27:13;34.60;99.90
43607;DHT22;29197;44.788;10.366;2023-06-24T14:30:02;34.70;99.90
43607;DHT22;29197;44.788;10.366;2023-06-24T14:32:52;34.80;99.90
43607;DHT22;29197;44.788;10.366;2023-06-24T14:35:41;34.90;99.90
43607;DHT22;29197;44.788;10.366;2023-06-24T14:38:30;34.90;99.90
43607;DHT22;29197;44.788;10.366;2023-06-24T14:41:19;34.90;99.10
43607;DHT22;29197;44.788;10.366;2023-06-24T14:44:08;34.70;98.80
43607;DHT22;29197;44.788;10.366;2023-06-24T14:46:56;34.50;99.30
43607;DHT22;29197;44.788;10.366;2023-06-24T14:49:46;34.50;99.50
43607;DHT22;29197;44.788;10.366;2023-06-24T14:52:35;34.40;99.80
43607;DHT22;29197;44.788;10.366;2023-06-24T14:55:23;34.40;99.90
43607;DHT22;29197;44.788;10.366;2023-06-24T14:58:12;34.50;99.80
43607;DHT22;29197;44.788;10.366;2023-06-24T15:01:02;34.40;99.90
43607;DHT22;29197;44.788;10.366;2023-06-24T15:03:51;34.50;99.80
43607;DHT22;29197;44.788;10.366;2023-06-24T15:06:41;34.50;99.10
43607;DHT22;29197;44.788;10.366;2023-06-24T15:09:30;34.50;99.10
43607;DHT22;29197;44.788;10.366;2023-06-24T15:17:57;33.90;95.90
43607;DHT22;29197;44.788;10.366;2023-06-24T15:20:47;33.80;99.90
43607;DHT22;29197;44.788;10.366;2023-06-24T15:23:37;33.90;99.90
43607;DHT22;29197;44.788;10.366;2023-06-24T15:26:26;33.80;99.90
43607;DHT22;29197;44.788;10.366;2023-06-24T15:29:14;33.90;99.90
43607;DHT22;29197;44.788;10.366;2023-06-24T15:32:04;33.90;99.90
43607;DHT22;29197;44.788;10.366;2023-06-24T15:34:53;33.80;99.90
43607;DHT22;29197;44.788;10.366;2023-06-24T15:37:41;33.70;99.90
43607;DHT22;29197;44.788;10.366;2023-06-24T15:40:31;33.70;99.90
43607;DHT22;29197;44.788;10.366;2023-06-24T15:43:21;33.70;99.90
43607;DHT22;29197;44.788;10.366;2023-06-24T15:46:09;33.60;99.90
43607;DHT22;29197;44.788;10.366;2023-06-24T15:48:58;33.50;99.90
43607;DHT22;29197;44.788;10.366;2023-06-24T15:51:47;33.40;99.90
43607;DHT22;29197;44.788;10.366;2023-06-24T15:54:36;33.30;99.90
43607;DHT22;29197;44.788;10.366;2023-06-24T15:57:26;33.30;99.90
43607;DHT22;29197;44.788;10.366;2023-06-24T16:00:15;33.20;99.90
43607;DHT22;29197;44.788;10.366;2023-06-24T16:03:03;33.30;99.90
43607;DHT22;29197;44.788;10.366;2023-06-24T16:05:52;33.10;99.90
43607;DHT22;29197;44.788;10.366;2023-06-24T16:08:41;33.10;99.90
43607;DHT22;29197;44.788;10.366;2023-06-24T16:11:29;33.10;99.90
43607;DHT22;29197;44.788;10.366;2023-06-24T16:14:19;33.00;99.90
43607;DHT22;29197;44.788;10.366;2023-06-24T16:17:08;33.00;99.90
43607;DHT22;29197;44.788;10.366;2023-06-24T16:25:34;32.60;91.60
43607;DHT22;29197;44.788;10.366;2023-06-24T16:28:23;32.40;92.40
43607;DHT22;29197;44.788;10.366;2023-06-24T16:31:13;32.30;92.10
43607;DHT22;29197;44.788;10.366;2023-06-24T16:34:01;32.30;92.30
43607;DHT22;29197;44.788;10.366;2023-06-24T16:36:50;32.20;91.60
43607;DHT22;29197;44.788;10.366;2023-06-24T16:39:39;32.00;91.50
43607;DHT22;29197;44.788;10.366;2023-06-24T16:42:27;31.90;91.60
43607;DHT22;29197;44.788;10.366;2023-06-24T16:45:16;31.80;91.80
43607;DHT22;29197;44.788;10.366;2023-06-24T16:48:06;31.70;91.70
43607;DHT22;29197;44.788;10.366;2023-06-24T16:50:56;31.70;91.90
43607;DHT22;29197;44.788;10.366;2023-06-24T16:53:44;31.60;91.70
43607;DHT22;29197;44.788;10.366;2023-06-24T16:56:33;31.50;91.90
43607;DHT22;29197;44.788;10.366;2023-06-24T16:59:22;31.50;92.00
43607;DHT22;29197;44.788;10.366;2023-06-24T17:02:10;31.50;92.00
43607;DHT22;29197;44.788;10.366;2023-06-24T17:05:00;31.60;92.30
43607;DHT22;29197;44.788;10.366;2023-06-24T17:07:49;31.50;92.40
43607;DHT22;29197;44.788;10.366;2023-06-24T17:10:38;31.50;92.80
43607;DHT22;29197;44.788;10.366;2023-06-24T17:13:26;31.70;91.60
43607;DHT22;29197;44.788;10.366;2023-06-24T17:16:15;31.60;91.90
43607;DHT22;29197;44.788;10.366;2023-06-24T17:19:04;31.60;91.80
43607;DHT22;29197;44.788;10.366;2023-06-24T17:21:54;31.60;92.00
43607;DHT22;29197;44.788;10.366;2023-06-24T17:24:43;31.50;92.30
43607;DHT22;29197;44.788;10.366;2023-06-24T17:27:32;31.40;92.30
43607;DHT22;29197;44.788;10.366;2023-06-24T17:30:20;31.40;92.50
43607;DHT22;29197;44.788;10.366;2023-06-24T17:33:09;31.40;92.70
43607;DHT22;29197;44.788;10.366;2023-06-24T17:35:57;31.30;93.00
43607;DHT22;29197;44.788;10.366;2023-06-24T17:38:47;31.20;93.00
43607;DHT22;29197;44.788;10.366;2023-06-24T17:41:36;31.20;93.00
43607;DHT22;29197;44.788;10.366;2023-06-24T17:44:24;31.30;93.20
43607;DHT22;29197;44.788;10.366;2023-06-24T17:47:13;31.20;93.40
43607;DHT22;29197;44.788;10.366;2023-06-24T17:50:02;31.10;93.00
43607;DHT22;29197;44.788;10.366;2023-06-24T17:52:51;31.00;93.10
43607;DHT22;29197;44.788;10.366;2023-06-24T17:55:41;31.00;93.40
43607;DHT22;29197;44.788;10.366;2023-06-24T17:58:30;31.00;93.30
43607;DHT22;29197;44.788;10.366;2023-06-24T18:01:19;30.90;93.40
43607;DHT22;29197;44.788;10.366;2023-06-24T18:04:11;30.90;93.70
43607;DHT22;29197;44.788;10.366;2023-06-24T18:07:00;30.80;93.70
43607;DHT22;29197;44.788;10.366;2023-06-24T18:09:49;30.80;93.90
43607;DHT22;29197;44.788;10.366;2023-06-24T18:12:39;30.80;94.40
43607;DHT22;29197;44.788;10.366;2023-06-24T18:15:28;30.70;94.70
43607;DHT22;29197;44.788;10.366;2023-06-24T18:18:16;30.70;95.50
43607;DHT22;29197;44.788;10.366;2023-06-24T18:21:05;30.60;95.80
43607;DHT22;29197;44.788;10.366;2023-06-24T18:23:54;30.50;96.10
43607;DHT22;29197;44.788;10.366;2023-06-24T18:26:45;30.40;96.30
43607;DHT22;29197;44.788;10.366;2023-06-24T18:29:35;30.40;96.40
43607;DHT22;29197;44.788;10.366;2023-06-24T18:32:23;30.30;96.50
43607;DHT22;29197;44.788;10.366;2023-06-24T18:35:12;30.20;96.70
43607;DHT22;29197;44.788;10.366;2023-06-24T18:38:01;30.20;96.80
43607;DHT22;29197;44.788;10.366;2023-06-24T18:40:49;30.20;97.00
43607;DHT22;29197;44.788;10.366;2023-06-24T18:43:38;30.00;96.90
43607;DHT22;29197;44.788;10.366;2023-06-24T18:46:28;29.90;97.10
43607;DHT22;29197;44.788;10.366;2023-06-24T18:49:16;29.90;97.00
43607;DHT22;29197;44.788;10.366;2023-06-24T18:52:05;29.80;97.00
43607;DHT22;29197;44.788;10.366;2023-06-24T18:54:54;29.80;96.90
43607;DHT22;29197;44.788;10.366;2023-06-24T18:57:43;29.70;97.00
43607;DHT22;29197;44.788;10.366;2023-06-24T19:00:31;29.60;97.00
43607;DHT22;29197;44.788;10.366;2023-06-24T19:03:22;29.50;96.90
43607;DHT22;29197;44.788;10.366;2023-06-24T19:06:10;29.50;97.00
43607;DHT22;29197;44.788;10.366;2023-06-24T19:08:59;29.40;97.10
43607;DHT22;29197;44.788;10.366;2023-06-24T19:11:48;29.40;97.10
43607;DHT22;29197;44.788;10.366;2023-06-24T19:14:36;29.40;97.10
43607;DHT22;29197;44.788;10.366;2023-06-24T19:17:25;29.40;97.10
43607;DHT22;29197;44.788;10.366;2023-06-24T19:20:15;29.40;97.30
43607;DHT22;29197;44.788;10.366;2023-06-24T19:23:04;29.40;97.20
43607;DHT22;29197;44.788;10.366;2023-06-24T19:25:53;29.40;97.10
43607;DHT22;29197;44.788;10.366;2023-06-24T19:28:41;29.40;97.20
43607;DHT22;29197;44.788;10.366;2023-06-24T19:31:30;29.30;97.20
43607;DHT22;29197;44.788;10.366;2023-06-24T19:34:19;29.20;97.10
43607;DHT22;29197;44.788;10.366;2023-06-24T19:37:09;29.20;97.20
43607;DHT22;29197;44.788;10.366;2023-06-24T19:39:58;29.10;97.20
43607;DHT22;29197;44.788;10.366;2023-06-24T19:42:47;29.00;97.30
43607;DHT22;29197;44.788;10.366;2023-06-24T19:45:35;29.00;97.30
43607;DHT22;29197;44.788;10.366;2023-06-24T19:48:24;29.10;97.40
43607;DHT22;29197;44.788;10.366;2023-06-24T19:51:14;29.10;97.50
43607;DHT22;29197;44.788;10.366;2023-06-24T19:54:05;29.10;97.40
43607;DHT22;29197;44.788;10.366;2023-06-24T19:56:53;29.10;97.40
43607;DHT22;29197;44.788;10.366;2023-06-24T19:59:42;29.10;97.30
43607;DHT22;29197;44.788;10.366;2023-06-24T20:02:31;29.10;97.40
43607;DHT22;29197;44.788;10.366;2023-06-24T20:05:19;29.00;97.40
43607;DHT22;29197;44.788;10.366;2023-06-24T20:08:08;29.00;97.30
43607;DHT22;29197;44.788;10.366;2023-06-24T20:10:58;28.90;97.50
43607;DHT22;29197;44.788;10.366;2023-06-24T20:13:48;28.80;97.70
43607;DHT22;29197;44.788;10.366;2023-06-24T20:16:37;28.80;98.00
43607;DHT22;29197;44.788;10.366;2023-06-24T20:19:26;28.80;98.00
43607;DHT22;29197;44.788;10.366;2023-06-24T20:22:15;28.80;98.10
43607;DHT22;29197;44.788;10.366;2023-06-24T20:25:05;28.80;98.00
43607;DHT22;29197;44.788;10.366;2023-06-24T20:27:55;28.70;98.10
43607;DHT22;29197;44.788;10.366;2023-06-24T20:30:43;28.70;98.20
43607;DHT22;29197;44.788;10.366;2023-06-24T20:33:33;28.60;98.20
43607;DHT22;29197;44.788;10.366;2023-06-24T20:36:21;28.60;98.30
43607;DHT22;29197;44.788;10.366;2023-06-24T20:39:10;28.60;98.30
43607;DHT22;29197;44.788;10.366;2023-06-24T20:41:59;28.60;98.40
43607;DHT22;29197;44.788;10.366;2023-06-24T20:44:49;28.50;98.30
43607;DHT22;29197;44.788;10.366;2023-06-24T20:47:38;28.40;98.50
43607;DHT22;29197;44.788;10.366;2023-06-24T20:50:27;28.30;98.70
43607;DHT22;29197;44.788;10.366;2023-06-24T20:53:16;28.20;98.90
43607;DHT22;29197;44.788;10.366;2023-06-24T20:56:05;28.10;99.20
43607;DHT22;29197;44.788;10.366;2023-06-24T20:58:54;28.00;99.50
43607;DHT22;29197;44.788;10.366;2023-06-24T21:01:44;27.90;99.30
43607;DHT22;29197;44.788;10.366;2023-06-24T21:04:33;27.80;99.60
43607;DHT22;29197;44.788;10.366;2023-06-24T21:07:22;27.70;99.50
43607;DHT22;29197;44.788;10.366;2023-06-24T21:10:11;27.80;99.90
43607;DHT22;29197;44.788;10.366;2023-06-24T21:12:59;27.80;99.60
43607;DHT22;29197;44.788;10.366;2023-06-24T21:15:48;27.80;99.90
43607;DHT22;29197;44.788;10.366;2023-06-24T21:18:38;27.90;99.80
43607;DHT22;29197;44.788;10.366;2023-06-24T21:21:27;28.00;99.80
43607;DHT22;29197;44.788;10.366;2023-06-24T21:24:15;28.00;99.90
43607;DHT22;29197;44.788;10.366;2023-06-24T21:27:04;28.00;99.90
43607;DHT22;29197;44.788;10.366;2023-06-24T21:29:53;27.90;99.90
43607;DHT22;29197;44.788;10.366;2023-06-24T21:32:41;27.90;99.90
43607;DHT22;29197;44.788;10.366;2023-06-24T21:35:31;27.90;99.90
43607;DHT22;29197;44.788;10.366;2023-06-24T21:38:20;27.90;99.80
43607;DHT22;29197;44.788;10.366;2023-06-24T21:41:09;28.00;99.80
43607;DHT22;29197;44.788;10.366;2023-06-24T21:43:57;27.90;99.70
43607;DHT22;29197;44.788;10.366;2023-06-24T21:46:46;27.90;99.70
43607;DHT22;29197;44.788;10.366;2023-06-24T21:49:34;27.90;99.80
43607;DHT22;29197;44.788;10.366;2023-06-24T21:52:24;27.90;99.90
43607;DHT22;29197;44.788;10.366;2023-06-24T21:55:13;27.90;99.90
43607;DHT22;29197;44.788;10.366;2023-06-24T21:58:02;27.80;99.90
43607;DHT22;29197;44.788;10.366;2023-06-24T22:00:50;27.80;99.90
43607;DHT22;29197;44.788;10.366;2023-06-24T22:03:39;27.80;99.90
43607;DHT22;29197;44.788;10.366;2023-06-24T22:06:28;27.80;99.90
43607;DHT22;29197;44.788;10.366;2023-06-24T22:09:18;27.80;99.90
43607;DHT22;29197;44.788;10.366;2023-06-24T22:12:07;27.80;99.90
43607;DHT22;29197;44.788;10.366;2023-06-24T22:14:55;27.80;99.90
43607;DHT22;29197;44.788;10.366;2023-06-24T22:17:44;27.70;99.90
43607;DHT22;29197;44.788;10.366;2023-06-24T22:20:33;27.60;99.90
43607;DHT22;29197;44.788;10.366;2023-06-24T22:26:12;27.40;99.90
43607;DHT22;29197;44.788;10.366;2023-06-24T22:29:01;27.40;99.90
43607;DHT22;29197;44.788;10.366;2023-06-24T22:31:49;27.30;99.90
43607;DHT22;29197;44.788;10.366;2023-06-24T22:34:38;27.20;99.90
43607;DHT22;29197;44.788;10.366;2023-06-24T22:37:27;27.10;99.90
43607;DHT22;29197;44.788;10.366;2023-06-24T22:43:05;26.70;99.90
43607;DHT22;29197;44.788;10.366;2023-06-24T22:45:54;26.40;99.90
43607;DHT22;29197;44.788;10.366;2023-06-24T22:48:43;26.30;99.90
43607;DHT22;29197;44.788;10.366;2023-06-24T22:51:31;26.50;99.90
43607;DHT22;29197;44.788;10.366;2023-06-24T22:54:20;26.60;99.90
43607;DHT22;29197;44.788;10.366;2023-06-24T22:57:09;26.70;99.90
43607;DHT22;29197;44.788;10.366;2023-06-24T22:59:59;26.80;99.90
43607;DHT22;29197;44.788;10.366;2023-06-24T23:02:48;26.90;99.90
43607;DHT22;29197;44.788;10.366;2023-06-24T23:05:37;27.00;99.90
43607;DHT22;29197;44.788;10.366;2023-06-24T23:08:26;27.10;99.90
43607;DHT22;29197;44.788;10.366;2023-06-24T23:11:15;27.10;99.90
43607;DHT22;29197;44.788;10.366;2023-06-24T23:14:04;27.10;99.90
43607;DHT22;29197;44.788;10.366;2023-06-24T23:16:55;27.10;99.90
43607;DHT22;29197;44.788;10.366;2023-06-24T23:19:44;27.10;99.90
43607;DHT22;29197;44.788;10.366;2023-06-24T23:22:33;27.20;99.90
43607;DHT22;29197;44.788;10.366;2023-06-24T23:25:23;27.10;99.90
43607;DHT22;29197;44.788;10.366;2023-06-24T23:28:16;27.00;99.90
43607;DHT22;29197;44.788;10.366;2023-06-24T23:31:05;26.90;99.90
43607;DHT22;29197;44.788;10.366;2023-06-24T23:34:01;26.90;99.90
43607;DHT22;29197;44.788;10.366;2023-06-24T23:36:50;27.00;99.90
43607;DHT22;29197;44.788;10.366;2023-06-24T23:39:39;26.90;99.90
43607;DHT22;29197;44.788;10.366;2023-06-24T23:42:29;26.90;99.90
43607;DHT22;29197;44.788;10.366;2023-06-24T23:45:19;27.00;99.90
43607;DHT22;29197;44.788;10.366;2023-06-24T23:48:08;27.00;99.90
43607;DHT22;29197;44.788;10.366;2023-06-24T23:50:58;26.90;99.90
43607;DHT22;29197;44.788;10.366;2023-06-24T23:53:46;26.80;99.90
43607;DHT22;29197;44.788;10.366;2023-06-24T23:56:35;26.60;99.90
43607;DHT22;29197;44.788;10.366;2023-06-24T23:59:23;26.40;99.90
